Time;durP1;ratioP1;P1;durP2;ratioP2;P2;SDS_P1;SDS_P2;PMS_P1;PMS_P2;Temp;Humidity;BMP_temperature;BMP_pressure;BME280_temperature;BME280_humidity;BME280_pressure;Samples;Min_cycle;Max_cycle;Signal;HPM_P1;HPM_P2
2021/08/29 00:00:04;;;;;;;1.65;0.93;;;21.70;44.10;;;;;;6251035;28;20386;-78
2021/08/29 00:03:07;;;;;;;2.50;1.30;;;21.70;44.20;;;;;;6251696;28;20540;-78
2021/08/29 00:06:08;;;;;;;2.38;1.00;;;21.70;44.40;;;;;;6251033;28;20045;-78
2021/08/29 00:09:09;;;;;;;1.90;0.90;;;21.70;44.50;;;;;;6250379;28;20038;-76
2021/08/29 00:12:10;;;;;;;1.70;0.95;;;21.60;44.50;;;;;;6250403;28;20037;-78
2021/08/29 00:15:12;;;;;;;1.10;0.95;;;21.60;44.50;;;;;;6233907;28;20129;-78
2021/08/29 00:18:12;;;;;;;4.40;1.10;;;21.50;44.50;;;;;;6249755;28;20042;-78
2021/08/29 00:21:13;;;;;;;1.38;0.75;;;21.60;44.60;;;;;;6250852;28;20095;-77
2021/08/29 00:24:15;;;;;;;1.30;0.93;;;21.50;44.60;;;;;;6251625;28;20060;-78
2021/08/29 00:27:16;;;;;;;0.93;0.80;;;21.50;44.70;;;;;;6248259;28;20432;-76
2021/08/29 00:30:17;;;;;;;0.93;0.80;;;21.50;44.80;;;;;;6246986;28;20042;-77
2021/08/29 00:33:18;;;;;;;1.67;0.90;;;21.40;44.80;;;;;;6229888;28;20034;-76
2021/08/29 00:36:19;;;;;;;2.65;1.25;;;21.40;44.90;;;;;;6249602;28;20556;-77
2021/08/29 00:39:20;;;;;;;0.90;0.82;;;21.40;44.90;;;;;;6249178;28;20049;-77
2021/08/29 00:42:21;;;;;;;2.10;1.10;;;21.40;44.90;;;;;;6249781;28;20056;-78
2021/08/29 00:45:22;;;;;;;2.35;1.10;;;21.40;44.90;;;;;;6251083;28;20102;-77
2021/08/29 00:48:23;;;;;;;2.33;1.05;;;21.40;45.00;;;;;;6249509;28;20112;-78
2021/08/29 00:51:25;;;;;;;1.83;1.05;;;21.30;45.00;;;;;;6249101;28;20033;-78
2021/08/29 00:54:33;;;;;;;2.05;0.98;;;21.30;45.10;;;;;;6250997;28;20048;-77
2021/08/29 00:57:40;;;;;;;1.42;0.80;;;21.30;45.20;;;;;;6249056;28;20375;-76
2021/08/29 01:00:41;;;;;;;2.05;0.93;;;21.30;45.20;;;;;;6233159;28;20033;-78
2021/08/29 01:03:44;;;;;;;1.67;0.88;;;21.20;45.20;;;;;;6248093;28;20110;-77
2021/08/29 01:06:53;;;;;;;3.50;1.30;;;21.20;45.90;;;;;;6232753;28;20044;-77
2021/08/29 01:10:08;;;;;;;;;;;21.20;45.30;;;;;;6250762;28;20109;-78
2021/08/29 01:13:29;;;;;;;1.55;0.98;;;21.20;45.40;;;;;;6248177;28;20419;-77
2021/08/29 01:16:35;;;;;;;1.92;0.93;;;21.20;45.30;;;;;;6231541;28;20040;-78
2021/08/29 01:19:40;;;;;;;5.80;1.20;;;21.10;45.30;;;;;;6247585;28;20029;-78
2021/08/29 01:22:44;;;;;;;1.90;0.90;;;21.10;45.50;;;;;;6231760;28;20377;-78
2021/08/29 01:25:52;;;;;;;1.10;0.77;;;21.10;45.50;;;;;;6249035;28;20049;-78
2021/08/29 01:28:59;;;;;;;1.87;0.90;;;21.10;45.60;;;;;;6247864;28;20052;-77
2021/08/29 01:32:03;;;;;;;2.38;1.17;;;21.00;45.50;;;;;;6229690;28;20042;-77
2021/08/29 01:35:05;;;;;;;1.30;0.93;;;21.00;45.70;;;;;;6232216;28;20064;-78
2021/08/29 01:38:13;;;;;;;;;;;21.00;45.80;;;;;;6248417;28;20116;-77
2021/08/29 01:41:17;;;;;;;1.55;0.95;;;20.90;45.90;;;;;;6248779;28;19921;-78
2021/08/29 01:44:21;;;;;;;2.13;1.30;;;20.90;45.90;;;;;;6248271;28;20025;-77
2021/08/29 01:47:22;;;;;;;2.03;1.05;;;20.80;46.10;;;;;;6248283;28;20029;-77
2021/08/29 01:50:25;;;;;;;4.03;1.15;;;20.80;46.30;;;;;;6248326;28;20030;-78
2021/08/29 01:53:35;;;;;;;2.00;1.08;;;20.70;46.80;;;;;;6248425;28;20025;-77
2021/08/29 01:57:04;;;;;;;2.88;1.02;;;20.60;47.20;;;;;;6198189;28;20042;-77
2021/08/29 02:00:10;;;;;;;4.82;0.90;;;20.50;47.60;;;;;;6181436;28;20050;-77
2021/08/29 02:03:12;;;;;;;1.23;0.75;;;20.40;47.90;;;;;;6196716;28;20058;-77
2021/08/29 02:06:43;;;;;;;4.03;1.40;;;20.30;48.30;;;;;;6196443;28;20038;-77
2021/08/29 02:09:51;;;;;;;1.90;1.00;;;20.20;48.60;;;;;;6110358;29;20106;-78
2021/08/29 02:12:59;;;;;;;1.27;0.90;;;20.20;48.90;;;;;;6110274;29;20446;-77
2021/08/29 02:16:09;;;;;;;3.60;1.60;;;20.10;49.00;;;;;;6110372;29;20044;-78
2021/08/29 02:19:13;;;;;;;2.13;1.17;;;20.10;49.20;;;;;;6109596;29;20203;-78
2021/08/29 02:22:17;;;;;;;1.48;1.00;;;20.00;49.40;;;;;;6109862;29;20043;-77
2021/08/29 02:25:20;;;;;;;2.63;1.15;;;20.00;49.60;;;;;;6126152;29;20047;-77
2021/08/29 02:28:26;;;;;;;2.78;1.20;;;19.90;49.70;;;;;;6109781;29;20044;-78
2021/08/29 02:31:28;;;;;;;4.03;1.20;;;19.80;50.00;;;;;;6123808;29;20053;-78
2021/08/29 02:34:29;;;;;;;2.22;1.27;;;19.80;50.50;;;;;;6109744;29;20492;-78
2021/08/29 02:37:34;;;;;;;1.90;1.08;;;19.70;50.60;;;;;;6125557;29;20051;-78
2021/08/29 02:40:39;;;;;;;2.38;0.88;;;19.60;50.90;;;;;;6125806;29;20036;-77
2021/08/29 02:43:41;;;;;;;1.73;1.02;;;19.60;51.00;;;;;;6116194;29;20060;-78
2021/08/29 02:46:42;;;;;;;1.95;0.95;;;19.50;51.10;;;;;;6168239;28;20096;-78
2021/08/29 02:49:44;;;;;;;2.47;1.00;;;19.50;51.10;;;;;;6206925;28;20042;-77
2021/08/29 02:52:46;;;;;;;3.75;1.25;;;19.40;51.20;;;;;;6206665;28;20034;-78
2021/08/29 02:55:53;;;;;;;2.30;1.20;;;19.40;51.30;;;;;;6207698;28;20054;-77
2021/08/29 02:58:53;;;;;;;3.42;1.10;;;19.40;51.30;;;;;;6213694;28;20128;-77
2021/08/29 03:02:02;;;;;;;2.03;1.10;;;19.30;51.40;;;;;;6228421;28;20053;-78
2021/08/29 03:05:08;;;;;;;3.10;1.23;;;19.30;51.50;;;;;;6255622;28;20053;-78
2021/08/29 03:08:09;;;;;;;3.17;1.17;;;19.30;51.50;;;;;;6255259;28;20466;-78
2021/08/29 03:11:10;;;;;;;3.03;1.02;;;19.30;51.50;;;;;;6255702;28;20030;-77
2021/08/29 03:14:13;;;;;;;3.42;1.20;;;19.30;51.70;;;;;;6255176;28;20458;-78
2021/08/29 03:17:14;;;;;;;1.48;1.00;;;19.30;51.70;;;;;;6238520;28;20030;-77
2021/08/29 03:20:18;;;;;;;3.13;1.27;;;19.30;51.80;;;;;;6255169;28;20026;-78
2021/08/29 03:23:25;;;;;;;2.10;1.00;;;19.20;52.00;;;;;;6231669;28;20026;-78
2021/08/29 03:26:29;;;;;;;1.77;1.10;;;19.20;52.00;;;;;;6198652;28;20042;-78
2021/08/29 03:29:37;;;;;;;2.50;1.40;;;19.10;52.10;;;;;;6215165;28;20087;-78
2021/08/29 03:32:40;;;;;;;3.60;1.33;;;19.10;52.20;;;;;;6227753;28;20029;-78
2021/08/29 03:35:46;;;;;;;3.03;1.20;;;19.10;52.20;;;;;;6255304;28;20029;-78
2021/08/29 03:38:50;;;;;;;1.85;1.17;;;19.00;52.40;;;;;;6238446;28;20037;-77
2021/08/29 03:41:55;;;;;;;1.95;1.20;;;19.00;52.50;;;;;;6254198;28;20106;-78
2021/08/29 03:45:03;;;;;;;1.85;0.90;;;19.00;52.50;;;;;;6238769;28;20048;-77
2021/08/29 03:48:10;;;;;;;2.63;1.50;;;19.00;52.50;;;;;;6256421;28;20034;-77
2021/08/29 03:51:14;;;;;;;1.75;0.90;;;19.00;52.60;;;;;;6230628;28;20462;-77
2021/08/29 03:54:15;;;;;;;1.15;0.88;;;19.00;52.60;;;;;;6251582;28;20119;-77
2021/08/29 03:57:17;;;;;;;1.83;1.23;;;19.00;52.70;;;;;;6250836;28;20038;-77
2021/08/29 04:00:19;;;;;;;5.00;1.17;;;19.00;52.80;;;;;;6234602;28;20037;-77
2021/08/29 04:03:29;;;;;;;5.38;1.42;;;19.00;52.80;;;;;;6235208;28;20057;-78
2021/08/29 04:06:49;;;;;;;2.35;1.08;;;19.00;52.80;;;;;;6236849;28;20029;-77
2021/08/29 04:09:53;;;;;;;4.32;1.25;;;18.90;52.80;;;;;;6229366;28;20029;-77
2021/08/29 04:12:54;;;;;;;2.88;1.17;;;18.90;52.90;;;;;;6249727;28;20025;-77
2021/08/29 04:16:14;;;;;;;1.35;1.02;;;18.90;53.00;;;;;;6249053;28;20029;-78
2021/08/29 04:19:21;;;;;;;1.77;1.13;;;18.80;53.20;;;;;;6248883;28;20090;-78
2021/08/29 04:22:30;;;;;;;1.30;1.02;;;18.80;53.10;;;;;;6233365;28;20036;-78
2021/08/29 04:25:31;;;;;;;;;;;18.80;53.30;;;;;;6250125;28;20068;-78
2021/08/29 04:28:32;;;;;;;1.58;0.90;;;18.80;53.50;;;;;;6249711;28;19982;-77
2021/08/29 04:31:34;;;;;;;2.20;1.50;;;18.80;53.50;;;;;;6232733;28;20045;-78
2021/08/29 04:34:42;;;;;;;2.33;1.20;;;18.70;53.50;;;;;;6233755;28;20191;-78
2021/08/29 04:37:58;;;;;;;3.30;1.00;;;18.70;53.60;;;;;;6251252;28;20038;-77
2021/08/29 04:40:59;;;;;;;7.10;1.20;;;18.70;53.60;;;;;;6229681;28;20057;-77
2021/08/29 04:44:01;;;;;;;3.13;1.35;;;18.70;53.60;;;;;;6249360;28;20359;-77
2021/08/29 04:47:03;;;;;;;5.65;1.00;;;18.70;53.60;;;;;;6249516;28;20130;-77
2021/08/29 04:50:05;;;;;;;2.05;1.10;;;18.70;53.60;;;;;;6233536;28;20033;-77
2021/08/29 04:53:06;;;;;;;5.75;1.40;;;18.70;53.60;;;;;;6232933;28;20033;-77
2021/08/29 04:56:07;;;;;;;1.92;0.93;;;18.70;53.70;;;;;;6249775;28;20030;-77
2021/08/29 04:59:11;;;;;;;4.93;1.27;;;18.60;53.70;;;;;;6249175;28;20056;-77
2021/08/29 05:02:15;;;;;;;1.73;1.17;;;18.60;53.80;;;;;;6248222;28;20034;-77
2021/08/29 05:05:16;;;;;;;3.58;1.42;;;18.60;54.00;;;;;;6249133;28;20362;-77
2021/08/29 05:08:17;;;;;;;3.05;1.70;;;18.60;54.00;;;;;;6249243;28;20034;-77
2021/08/29 05:11:19;;;;;;;2.13;1.23;;;18.60;54.10;;;;;;6232768;28;20034;-77
2021/08/29 05:14:20;;;;;;;2.20;1.20;;;18.60;54.20;;;;;;6249943;28;20110;-78
2021/08/29 05:17:21;;;;;;;2.80;1.25;;;18.60;54.20;;;;;;6248992;28;20369;-78
2021/08/29 05:20:26;;;;;;;1.58;1.10;;;18.60;54.20;;;;;;6249241;28;20029;-78
2021/08/29 05:23:45;;;;;;;4.13;1.02;;;18.60;54.30;;;;;;6249342;28;20030;-77
2021/08/29 05:27:04;;;;;;;4.05;1.27;;;18.60;54.30;;;;;;6232732;28;20045;-77
2021/08/29 05:30:06;;;;;;;1.67;1.38;;;18.60;54.20;;;;;;6247065;28;20034;-77
2021/08/29 05:33:07;;;;;;;2.53;1.40;;;18.60;54.30;;;;;;6245844;28;20386;-77
2021/08/29 05:36:08;;;;;;;3.97;1.80;;;18.60;54.30;;;;;;6247696;28;20172;-77
2021/08/29 05:39:09;;;;;;;4.35;1.77;;;18.60;54.20;;;;;;6230113;28;20469;-77
2021/08/29 05:42:11;;;;;;;2.65;1.38;;;18.60;54.10;;;;;;6246972;28;20128;-78
2021/08/29 05:45:18;;;;;;;2.22;1.30;;;18.60;54.10;;;;;;6230927;28;20037;-78
2021/08/29 05:48:18;;;;;;;6.30;1.77;;;18.60;54.10;;;;;;6230201;28;20379;-77
2021/08/29 05:51:20;;;;;;;4.35;1.55;;;18.60;54.30;;;;;;6246209;28;20038;-77
2021/08/29 05:54:22;;;;;;;4.07;1.63;;;18.60;54.40;;;;;;6225599;28;20409;-77
2021/08/29 05:57:23;;;;;;;4.68;1.25;;;18.60;54.60;;;;;;6228528;28;20072;-78
2021/08/29 06:00:24;;;;;;;8.02;1.63;;;18.50;54.60;;;;;;6213794;28;20038;-78
2021/08/29 06:03:31;;;;;;;1.25;1.00;;;18.50;54.60;;;;;;6218937;28;20025;-78
2021/08/29 06:06:36;;;;;;;1.58;0.80;;;18.50;54.60;;;;;;6222008;28;20481;-77
2021/08/29 06:09:37;;;;;;;5.30;1.23;;;18.50;54.50;;;;;;6220752;28;20041;-77
2021/08/29 06:12:39;;;;;;;3.63;1.17;;;18.60;54.60;;;;;;6215061;28;20033;-78
2021/08/29 06:15:41;;;;;;;1.25;1.08;;;18.50;54.50;;;;;;6218418;28;20452;-77
2021/08/29 06:18:44;;;;;;;2.40;1.23;;;18.50;54.40;;;;;;6221157;28;20364;-77
2021/08/29 06:21:45;;;;;;;2.20;1.20;;;18.60;54.50;;;;;;6223733;28;20116;-77
2021/08/29 06:24:46;;;;;;;2.75;1.10;;;18.60;54.40;;;;;;6246002;28;20045;-77
2021/08/29 06:28:06;;;;;;;4.25;1.40;;;18.60;54.30;;;;;;6245408;28;20459;-77
2021/08/29 06:31:26;;;;;;;4.28;1.42;;;18.60;54.20;;;;;;6245491;28;20394;-77
2021/08/29 06:34:35;;;;;;;1.67;1.15;;;18.70;54.20;;;;;;6246436;28;20060;-76
2021/08/29 06:37:49;;;;;;;1.23;1.00;;;18.70;54.10;;;;;;6248618;28;20038;-77
2021/08/29 06:40:50;;;;;;;5.13;1.60;;;18.70;54.00;;;;;;6221717;28;20061;-77
2021/08/29 06:43:53;;;;;;;2.75;1.45;;;18.80;54.00;;;;;;6221736;28;20096;-75
2021/08/29 06:47:12;;;;;;;4.88;1.20;;;18.90;54.00;;;;;;6222179;28;20030;-76
2021/08/29 06:50:32;;;;;;;1.75;1.15;;;18.90;53.90;;;;;;6222628;28;20143;-75
2021/08/29 06:53:55;;;;;;;1.42;0.95;;;19.00;53.80;;;;;;6220118;28;20037;-76
2021/08/29 06:57:27;;;;;;;1.50;0.90;;;19.10;53.60;;;;;;6199734;28;20455;-76
2021/08/29 07:00:29;;;;;;;1.88;1.27;;;19.40;53.60;;;;;;6200741;28;20632;-76
2021/08/29 07:03:34;;;;;;;2.10;1.30;;;19.20;53.30;;;;;;6175052;28;20042;-76
2021/08/29 07:06:36;;;;;;;3.42;1.08;;;19.20;53.10;;;;;;6201764;28;20053;-76
2021/08/29 07:10:09;;;;;;;1.60;1.27;;;19.30;53.10;;;;;;6217221;28;20042;-76
2021/08/29 07:13:31;;;;;;;1.40;0.88;;;19.30;53.00;;;;;;6203326;28;20137;-76
2021/08/29 07:16:32;;;;;;;1.52;1.02;;;19.30;53.00;;;;;;6201120;28;20042;-76
2021/08/29 07:19:33;;;;;;;3.03;1.00;;;19.30;53.00;;;;;;6191463;28;20355;-76
2021/08/29 07:22:54;;;;;;;2.88;1.15;;;19.30;53.00;;;;;;6215692;28;20053;-76
2021/08/29 07:26:14;;;;;;;2.33;1.20;;;19.30;52.90;;;;;;6192948;28;20471;-76
2021/08/29 07:29:33;;;;;;;4.07;1.23;;;19.30;52.80;;;;;;6218817;28;20316;-76
2021/08/29 07:32:53;;;;;;;5.78;1.77;;;19.40;52.70;;;;;;6207038;28;20037;-76
2021/08/29 07:35:54;;;;;;;4.40;1.30;;;19.50;52.50;;;;;;6221022;28;20033;-76
2021/08/29 07:39:12;;;;;;;1.17;0.93;;;19.60;52.40;;;;;;6232199;28;20382;-76
2021/08/29 07:42:13;;;;;;;3.47;1.33;;;19.70;52.20;;;;;;6248702;28;20041;-76
2021/08/29 07:45:14;;;;;;;2.28;1.30;;;19.80;52.10;;;;;;6230449;28;20143;-76
2021/08/29 07:48:15;;;;;;;1.85;1.45;;;19.90;52.00;;;;;;6244769;28;20162;-75
2021/08/29 07:51:16;;;;;;;1.95;1.00;;;19.90;51.80;;;;;;6231281;28;20110;-76
2021/08/29 07:54:37;;;;;;;2.28;1.25;;;20.10;51.60;;;;;;6245802;28;20038;-76
2021/08/29 07:58:04;;;;;;;1.33;0.90;;;20.20;51.30;;;;;;6231101;28;20049;-75
2021/08/29 08:01:08;;;;;;;6.57;1.20;;;20.40;51.00;;;;;;6230604;28;20041;-76
2021/08/29 08:04:08;;;;;;;2.00;1.20;;;20.50;50.70;;;;;;6236123;28;20498;-77
2021/08/29 08:07:41;;;;;;;1.85;1.13;;;20.50;50.60;;;;;;6126056;29;20028;-77
2021/08/29 08:11:05;;;;;;;1.45;1.00;;;20.60;50.50;;;;;;6146645;28;20039;-77
2021/08/29 08:14:07;;;;;;;1.55;1.13;;;20.80;50.30;;;;;;6147247;28;20322;-77
2021/08/29 08:17:08;;;;;;;2.10;1.08;;;21.00;50.00;;;;;;6148132;28;20027;-77
2021/08/29 08:20:15;;;;;;;3.58;1.33;;;21.20;49.80;;;;;;6132534;29;20048;-77
2021/08/29 08:23:28;;;;;;;2.47;1.10;;;21.30;49.30;;;;;;6146581;29;20129;-76
2021/08/29 08:26:55;;;;;;;2.40;1.02;;;21.50;49.00;;;;;;6147307;28;20043;-77
2021/08/29 08:29:59;;;;;;;1.77;1.20;;;21.70;48.60;;;;;;6158463;28;20469;-77
2021/08/29 08:33:25;;;;;;;3.30;1.48;;;21.80;48.30;;;;;;6129996;29;20059;-77
2021/08/29 08:36:45;;;;;;;1.42;1.17;;;22.00;48.00;;;;;;6148070;29;20441;-78
2021/08/29 08:40:06;;;;;;;2.30;1.30;;;22.10;47.60;;;;;;6131014;29;20075;-77
2021/08/29 08:43:14;;;;;;;1.90;1.20;;;22.20;47.30;;;;;;6145341;28;20047;-76
2021/08/29 08:46:37;;;;;;;1.98;1.40;;;22.30;46.80;;;;;;6126690;28;20036;-78
2021/08/29 08:50:00;;;;;;;4.70;1.27;;;22.20;46.80;;;;;;6156375;28;20046;-77
2021/08/29 08:53:24;;;;;;;5.75;1.55;;;22.30;46.80;;;;;;6090295;29;20040;-77
2021/08/29 08:57:00;;;;;;;4.63;1.07;;;22.30;46.60;;;;;;6042138;29;20033;-78
2021/08/29 09:00:37;;;;;;;2.67;1.35;;;22.40;46.40;;;;;;5993890;29;20148;-78
2021/08/29 09:03:56;;;;;;;1.42;1.05;;;22.50;46.10;;;;;;6004461;29;20045;-77
2021/08/29 09:07:02;;;;;;;1.27;1.13;;;22.50;46.10;;;;;;6024163;29;20369;-78
2021/08/29 09:10:07;;;;;;;2.90;1.00;;;22.60;46.10;;;;;;5988979;29;20468;-78
2021/08/29 09:13:08;;;;;;;1.63;1.00;;;22.80;46.00;;;;;;5990284;29;20380;-78
2021/08/29 09:16:17;;;;;;;1.40;0.90;;;22.90;45.90;;;;;;5998421;29;20158;-77
2021/08/29 09:19:20;;;;;;;3.70;1.35;;;22.90;45.80;;;;;;5983266;29;20054;-79
2021/08/29 09:22:26;;;;;;;1.98;1.58;;;23.00;45.80;;;;;;5991687;29;20049;-78
2021/08/29 09:25:47;;;;;;;2.03;1.25;;;23.10;45.80;;;;;;5994946;29;20069;-77
2021/08/29 09:29:15;;;;;;;4.20;1.45;;;23.00;45.80;;;;;;6034688;29;20048;-78
2021/08/29 09:32:22;;;;;;;3.08;1.45;;;23.10;46.00;;;;;;6143372;28;20034;-78
2021/08/29 09:35:36;;;;;;;5.53;1.38;;;23.20;46.00;;;;;;6237867;28;20033;-78
2021/08/29 09:39:11;;;;;;;1.73;1.20;;;23.30;45.90;;;;;;6218727;28;20046;-78
2021/08/29 09:42:47;;;;;;;1.05;0.90;;;23.30;46.00;;;;;;6216201;28;20038;-78
2021/08/29 09:45:51;;;;;;;1.80;0.98;;;23.40;45.90;;;;;;6219978;28;20037;-81
2021/08/29 09:53:46;;;;;;;1.63;1.00;;;23.50;45.90;;;;;;6217681;28;20033;-78
2021/08/29 09:56:59;;;;;;;1.52;1.10;;;23.60;45.80;;;;;;6215456;28;20049;-79
2021/08/29 10:00:20;;;;;;;2.53;1.17;;;23.70;45.70;;;;;;6244979;28;20095;-79
2021/08/29 10:03:30;;;;;;;1.40;1.13;;;23.70;45.60;;;;;;6244437;28;20037;-79
2021/08/29 10:06:31;;;;;;;1.67;1.10;;;23.80;45.40;;;;;;6246648;28;20120;-79
2021/08/29 10:09:32;;;;;;;4.68;1.10;;;23.80;45.30;;;;;;6246175;28;20048;-80
2021/08/29 10:12:43;;;;;;;3.85;1.10;;;23.80;45.30;;;;;;6245063;28;20042;-79
2021/08/29 10:15:44;;;;;;;3.17;1.38;;;24.00;45.10;;;;;;6244939;28;20136;-79
2021/08/29 10:18:53;;;;;;;1.92;1.02;;;24.10;44.30;;;;;;6244939;28;20370;-79
2021/08/29 10:22:13;;;;;;;2.83;1.23;;;24.10;44.70;;;;;;6243247;28;20041;-79
2021/08/29 10:25:19;;;;;;;1.10;1.00;;;24.10;44.60;;;;;;6228748;28;20382;-79
2021/08/29 10:28:24;;;;;;;1.40;1.10;;;24.10;44.40;;;;;;6234670;28;20034;-79
2021/08/29 10:31:36;;;;;;;2.13;1.15;;;24.20;44.30;;;;;;6245084;28;20103;-78
2021/08/29 10:34:54;;;;;;;1.30;0.93;;;24.30;44.20;;;;;;6211339;28;20049;-78
2021/08/29 10:37:55;;;;;;;2.42;1.30;;;24.30;44.00;;;;;;6223968;28;20383;-78
2021/08/29 10:41:21;;;;;;;1.70;1.10;;;24.40;44.00;;;;;;6243595;28;20037;-79
2021/08/29 10:44:24;;;;;;;1.02;0.90;;;24.50;43.70;;;;;;6244610;28;20029;-79
2021/08/29 10:47:45;;;;;;;1.45;1.33;;;24.80;43.20;;;;;;6237121;28;20033;-80
2021/08/29 10:51:06;;;;;;;1.08;0.98;;;25.30;42.30;;;;;;6240962;28;20033;-78
2021/08/29 10:54:14;;;;;;;2.60;1.40;;;25.80;41.30;;;;;;6241880;28;20041;-81
2021/08/29 10:57:27;;;;;;;1.67;1.20;;;26.10;40.70;;;;;;6239343;28;20038;-78
2021/08/29 11:00:29;;;;;;;0.98;0.90;;;26.60;40.10;;;;;;6225103;28;20497;-77
2021/08/29 11:03:44;;;;;;;3.05;1.30;;;27.00;39.60;;;;;;6225373;28;20033;-77
2021/08/29 11:07:11;;;;;;;1.17;1.00;;;27.40;39.30;;;;;;6246672;28;20030;-78
2021/08/29 11:10:37;;;;;;;0.93;0.85;;;27.80;38.70;;;;;;6233598;28;20121;-77
2021/08/29 11:13:39;;;;;;;1.90;1.10;;;28.20;38.20;;;;;;6243413;28;20421;-77
2021/08/29 11:17:15;;;;;;;4.82;2.05;;;28.50;37.50;;;;;;6254940;28;20036;-80
2021/08/29 11:20:34;;;;;;;3.28;1.52;;;28.80;36.90;;;;;;6246509;28;20401;-77
2021/08/29 11:23:56;;;;;;;3.22;1.30;;;28.90;36.20;;;;;;6220784;28;20065;-77
2021/08/29 11:26:59;;;;;;;1.63;1.30;;;28.90;36.00;;;;;;6206300;28;20037;-79
2021/08/29 11:30:34;;;;;;;1.13;0.90;;;29.10;35.90;;;;;;6218992;28;20038;-78
2021/08/29 11:33:39;;;;;;;5.13;1.90;;;29.30;35.20;;;;;;6183851;28;20043;-78
2021/08/29 11:36:51;;;;;;;1.15;1.05;;;29.40;35.00;;;;;;6178214;28;20122;-78
2021/08/29 11:40:02;;;;;;;3.03;1.20;;;29.40;35.00;;;;;;6163003;28;20045;-79
2021/08/29 11:43:26;;;;;;;1.48;1.00;;;29.30;35.10;;;;;;6178555;28;20050;-78
2021/08/29 11:46:36;;;;;;;2.10;1.10;;;29.40;34.80;;;;;;6166102;28;20125;-79
2021/08/29 11:49:41;;;;;;;1.02;0.93;;;29.60;34.50;;;;;;6196749;28;20050;-78
2021/08/29 11:52:43;;;;;;;4.07;1.25;;;29.80;34.20;;;;;;6178953;28;20439;-78
2021/08/29 11:55:44;;;;;;;1.48;0.95;;;30.00;33.80;;;;;;6163625;28;20054;-78
2021/08/29 11:58:47;;;;;;;2.22;1.00;;;30.20;33.50;;;;;;6179978;28;20042;-78
2021/08/29 12:01:54;;;;;;;1.70;1.00;;;30.40;33.10;;;;;;6199249;28;20030;-78
2021/08/29 12:05:07;;;;;;;7.97;1.10;;;30.50;32.60;;;;;;6205949;28;20466;-79
2021/08/29 12:08:33;;;;;;;2.72;1.00;;;30.80;32.30;;;;;;6222069;28;20041;-78
2021/08/29 12:11:54;;;;;;;1.20;0.80;;;31.20;31.40;;;;;;6227783;28;20057;-78
2021/08/29 12:15:26;;;;;;;1.80;1.02;;;31.60;30.80;;;;;;6221795;28;20034;-79
2021/08/29 12:18:28;;;;;;;2.05;1.38;;;32.10;29.90;;;;;;6243675;28;20057;-79
2021/08/29 12:21:30;;;;;;;1.90;1.13;;;32.40;29.50;;;;;;6227793;28;20033;-78
2021/08/29 12:25:01;;;;;;;1.75;1.25;;;32.70;29.30;;;;;;6243005;28;20033;-79
2021/08/29 12:28:10;;;;;;;0.80;0.80;;;33.30;28.70;;;;;;6243901;28;20045;-79
2021/08/29 12:31:11;;;;;;;1.15;1.05;;;33.80;28.10;;;;;;6228358;28;20053;-79
2021/08/29 12:34:12;;;;;;;4.45;0.90;;;34.20;27.60;;;;;;6225839;28;20037;-79
2021/08/29 12:37:14;;;;;;;1.30;0.88;;;34.40;27.20;;;;;;6228247;28;20527;-79
2021/08/29 12:40:17;;;;;;;1.35;0.95;;;34.80;27.10;;;;;;6243413;28;20038;-78
2021/08/29 12:43:25;;;;;;;1.20;1.08;;;35.20;26.50;;;;;;6227131;28;20037;-78
2021/08/29 12:46:32;;;;;;;1.65;1.20;;;35.60;25.90;;;;;;6228024;28;20512;-78
2021/08/29 12:49:33;;;;;;;1.65;1.00;;;35.90;25.50;;;;;;6245485;28;20041;-78
2021/08/29 12:52:42;;;;;;;3.45;0.98;;;36.30;25.20;;;;;;6226875;28;20045;-78
2021/08/29 12:55:52;;;;;;;1.35;1.10;;;36.20;24.90;;;;;;6244593;28;20049;-78
2021/08/29 12:58:53;;;;;;;3.00;1.27;;;35.90;25.10;;;;;;6244357;28;20053;-79
2021/08/29 13:01:55;;;;;;;1.02;0.90;;;35.70;25.20;;;;;;6244609;28;20363;-78
2021/08/29 13:04:57;;;;;;;1.08;0.98;;;36.00;25.20;;;;;;6245439;28;20057;-79
2021/08/29 13:07:58;;;;;;;1.95;1.00;;;36.40;24.80;;;;;;6224492;28;20478;-78
2021/08/29 13:11:11;;;;;;;1.52;0.95;;;36.80;24.40;;;;;;6246877;28;20078;-79
2021/08/29 13:14:27;;;;;;;1.15;0.88;;;37.30;24.00;;;;;;6247569;28;20096;-79
2021/08/29 13:17:30;;;;;;;1.10;1.00;;;37.90;23.50;;;;;;6246304;28;20033;-78
2021/08/29 13:20:42;;;;;;;2.10;1.10;;;38.20;22.90;;;;;;6245537;28;20043;-78
2021/08/29 13:23:43;;;;;;;1.80;1.00;;;38.40;22.70;;;;;;6244802;28;20045;-78
2021/08/29 13:26:43;;;;;;;0.85;0.85;;;38.30;22.70;;;;;;6227590;28;20057;-78
2021/08/29 13:29:45;;;;;;;0.85;0.85;;;38.00;22.80;;;;;;6244437;28;20379;-78
2021/08/29 13:32:47;;;;;;;2.83;0.90;;;37.70;23.00;;;;;;6225204;28;20135;-78
2021/08/29 13:35:48;;;;;;;1.33;1.10;;;37.70;23.00;;;;;;6243323;28;20038;-78
2021/08/29 13:38:49;;;;;;;1.73;1.10;;;38.00;23.00;;;;;;6244742;28;20133;-78
2021/08/29 13:42:15;;;;;;;1.77;1.00;;;38.20;22.60;;;;;;6237260;28;20362;-80
2021/08/29 13:45:16;;;;;;;1.20;1.10;;;38.30;22.50;;;;;;6227211;28;20352;-80
2021/08/29 13:48:17;;;;;;;1.58;1.20;;;38.20;22.70;;;;;;6245801;28;20092;-79
2021/08/29 13:51:18;;;;;;;7.40;1.00;;;38.30;22.50;;;;;;6244135;28;20041;-78
2021/08/29 13:54:19;;;;;;;1.48;1.13;;;38.50;22.40;;;;;;6242274;28;20033;-79
2021/08/29 13:57:20;;;;;;;2.92;1.10;;;38.70;22.30;;;;;;6242450;28;20103;-78
2021/08/29 14:00:21;;;;;;;0.80;0.80;;;39.10;22.00;;;;;;6242965;28;20553;-78
2021/08/29 14:03:23;;;;;;;3.35;1.67;;;39.40;22.10;;;;;;6242245;28;20048;-77
2021/08/29 14:06:24;;;;;;;1.95;1.08;;;39.30;21.60;;;;;;6242129;28;20037;-80
2021/08/29 14:09:25;;;;;;;1.63;0.90;;;38.80;22.00;;;;;;6223428;28;20091;-79
2021/08/29 14:12:26;;;;;;;1.60;1.00;;;37.70;22.90;;;;;;6243884;28;20111;-79
2021/08/29 14:15:28;;;;;;;2.28;1.30;;;36.20;24.00;;;;;;6244036;28;20442;-78
2021/08/29 14:18:28;;;;;;;1.35;1.10;;;34.70;25.30;;;;;;6210942;28;20034;-78
2021/08/29 14:21:30;;;;;;;3.05;1.23;;;33.40;26.70;;;;;;6201742;28;20038;-78
2021/08/29 14:24:35;;;;;;;0.95;0.80;;;32.20;27.90;;;;;;6219175;28;20038;-79
2021/08/29 14:27:37;;;;;;;0.90;0.90;;;31.30;29.00;;;;;;6210296;28;20095;-78
2021/08/29 14:30:37;;;;;;;1.75;1.08;;;30.50;29.90;;;;;;6244110;28;20034;-78
2021/08/29 14:33:38;;;;;;;1.20;1.02;;;30.00;31.00;;;;;;6225241;28;20335;-79
2021/08/29 14:36:39;;;;;;;2.90;1.20;;;29.50;31.70;;;;;;6244782;28;20466;-78
2021/08/29 14:39:41;;;;;;;2.00;1.30;;;29.00;32.80;;;;;;6242848;28;20041;-78
2021/08/29 14:42:42;;;;;;;1.75;1.30;;;28.50;33.60;;;;;;6241699;28;20403;-78
2021/08/29 14:45:43;;;;;;;4.53;1.30;;;28.10;34.30;;;;;;6243860;28;20042;-78
2021/08/29 14:48:44;;;;;;;1.25;1.13;;;27.80;34.90;;;;;;6242882;28;20037;-78
2021/08/29 14:51:45;;;;;;;8.23;1.40;;;27.60;35.50;;;;;;6243557;28;20172;-78
2021/08/29 14:54:46;;;;;;;1.75;1.30;;;27.40;36.00;;;;;;6227099;28;20033;-78
2021/08/29 14:57:48;;;;;;;3.80;1.17;;;27.20;36.50;;;;;;6226457;28;20052;-78
2021/08/29 15:00:49;;;;;;;2.55;1.48;;;27.10;36.60;;;;;;6244839;28;20052;-78
2021/08/29 15:03:50;;;;;;;3.42;1.20;;;27.00;36.80;;;;;;6224207;28;20036;-78
2021/08/29 15:06:50;;;;;;;1.67;1.20;;;27.00;37.10;;;;;;6242020;28;20056;-77
2021/08/29 15:09:51;;;;;;;1.50;1.10;;;26.90;37.20;;;;;;6226698;28;20033;-78
2021/08/29 15:12:52;;;;;;;1.65;1.25;;;26.80;37.30;;;;;;6234572;28;20033;-78
2021/08/29 15:15:53;;;;;;;3.17;1.35;;;26.80;37.40;;;;;;6218559;28;20034;-78
2021/08/29 15:18:54;;;;;;;2.60;1.30;;;26.80;37.60;;;;;;6221397;28;20041;-77
2021/08/29 15:21:56;;;;;;;1.38;1.27;;;26.80;37.80;;;;;;6246967;28;20390;-79
2021/08/29 15:24:57;;;;;;;6.65;1.48;;;26.80;37.70;;;;;;6228074;28;20046;-77
2021/08/29 15:27:59;;;;;;;1.83;1.40;;;27.00;37.70;;;;;;6242562;28;20037;-79
2021/08/29 15:31:01;;;;;;;1.58;1.20;;;27.20;37.50;;;;;;6225892;28;20125;-78
2021/08/29 15:34:04;;;;;;;3.42;1.75;;;27.20;37.50;;;;;;6239871;28;20033;-78
2021/08/29 15:37:06;;;;;;;2.03;1.45;;;27.20;37.60;;;;;;6240256;28;20033;-78
2021/08/29 15:40:08;;;;;;;1.70;1.23;;;27.20;37.70;;;;;;6247476;28;22256;-78
2021/08/29 15:43:09;;;;;;;1.95;1.50;;;27.10;37.80;;;;;;6242722;28;20339;-78
2021/08/29 15:46:10;;;;;;;1.42;1.15;;;27.00;38.10;;;;;;6244067;28;20046;-78
2021/08/29 15:49:10;;;;;;;2.65;1.42;;;26.90;38.30;;;;;;6245325;28;20095;-78
2021/08/29 15:52:13;;;;;;;2.65;1.75;;;26.80;38.40;;;;;;6246413;28;20099;-79
2021/08/29 15:55:17;;;;;;;2.25;1.38;;;26.80;38.50;;;;;;6231921;28;20029;-77
2021/08/29 15:58:19;;;;;;;3.47;1.30;;;26.90;38.60;;;;;;6231465;28;20037;-77
2021/08/29 16:01:20;;;;;;;2.58;1.42;;;27.10;38.40;;;;;;6248114;28;20068;-78
2021/08/29 16:04:21;;;;;;;1.60;1.40;;;28.00;37.20;;;;;;6248361;28;20049;-78
2021/08/29 16:07:21;;;;;;;1.70;1.10;;;28.80;35.50;;;;;;6245995;28;20078;-78
2021/08/29 16:10:24;;;;;;;2.90;1.52;;;29.80;34.00;;;;;;6247144;28;20034;-78
2021/08/29 16:13:26;;;;;;;1.95;1.40;;;30.40;32.70;;;;;;6249000;28;20037;-78
2021/08/29 16:16:27;;;;;;;2.05;1.30;;;30.80;31.80;;;;;;6230218;28;20037;-78
2021/08/29 16:19:28;;;;;;;2.03;1.45;;;30.40;32.20;;;;;;6248992;28;20053;-78